sensor_id;sensor_type;location;lat;lon;timestamp;P1;durP1;ratioP1;P2;durP2;ratioP2
65651;SDS011;52350;51.546;7.002;2022-09-09T00:07:01;2.17;;;1.10;;
65651;SDS011;52350;51.546;7.002;2022-09-09T00:12:17;5.20;;;1.63;;
65651;SDS011;52350;51.546;7.002;2022-09-09T00:14:59;4.10;;;1.45;;
65651;SDS011;52350;51.546;7.002;2022-09-09T00:20:47;2.53;;;1.25;;
65651;SDS011;52350;51.546;7.002;2022-09-09T00:23:29;6.15;;;1.35;;
65651;SDS011;52350;51.546;7.002;2022-09-09T00:26:01;1.67;;;1.10;;
65651;SDS011;52350;51.546;7.002;2022-09-09T00:28:54;4.45;;;1.50;;
65651;SDS011;52350;51.546;7.002;2022-09-09T00:31:30;5.32;;;1.80;;
65651;SDS011;52350;51.546;7.002;2022-09-09T00:33:59;2.85;;;1.27;;
65651;SDS011;52350;51.546;7.002;2022-09-09T00:36:44;5.50;;;1.40;;
65651;SDS011;52350;51.546;7.002;2022-09-09T00:39:34;3.63;;;1.53;;
65651;SDS011;52350;51.546;7.002;2022-09-09T00:42:25;3.42;;;1.23;;
65651;SDS011;52350;51.546;7.002;2022-09-09T00:47:58;4.13;;;1.50;;
65651;SDS011;52350;51.546;7.002;2022-09-09T00:53:39;4.22;;;1.63;;
65651;SDS011;52350;51.546;7.002;2022-09-09T00:56:37;5.95;;;1.63;;
65651;SDS011;52350;51.546;7.002;2022-09-09T01:05:02;5.22;;;1.45;;
65651;SDS011;52350;51.546;7.002;2022-09-09T01:07:44;4.63;;;1.60;;
65651;SDS011;52350;51.546;7.002;2022-09-09T01:10:59;4.50;;;1.50;;
65651;SDS011;52350;51.546;7.002;2022-09-09T01:13:25;4.15;;;1.50;;
65651;SDS011;52350;51.546;7.002;2022-09-09T01:15:58;4.25;;;1.35;;
65651;SDS011;52350;51.546;7.002;2022-09-09T01:18:34;4.88;;;1.38;;
65651;SDS011;52350;51.546;7.002;2022-09-09T01:21:35;4.25;;;1.52;;
65651;SDS011;52350;51.546;7.002;2022-09-09T01:27:48;7.18;;;1.60;;
65651;SDS011;52350;51.546;7.002;2022-09-09T01:30:18;7.82;;;1.80;;
65651;SDS011;52350;51.546;7.002;2022-09-09T01:32:46;5.18;;;1.80;;
65651;SDS011;52350;51.546;7.002;2022-09-09T01:35:41;8.13;;;1.80;;
65651;SDS011;52350;51.546;7.002;2022-09-09T01:38:34;5.18;;;1.80;;
65651;SDS011;52350;51.546;7.002;2022-09-09T01:41:01;12.10;;;2.00;;
65651;SDS011;52350;51.546;7.002;2022-09-09T01:43:28;6.90;;;2.13;;
65651;SDS011;52350;51.546;7.002;2022-09-09T01:45:55;7.72;;;1.95;;
65651;SDS011;52350;51.546;7.002;2022-09-09T01:48:25;6.63;;;1.77;;
65651;SDS011;52350;51.546;7.002;2022-09-09T01:50:52;5.68;;;1.90;;
65651;SDS011;52350;51.546;7.002;2022-09-09T01:53:18;6.47;;;1.80;;
65651;SDS011;52350;51.546;7.002;2022-09-09T01:55:50;4.25;;;1.45;;
65651;SDS011;52350;51.546;7.002;2022-09-09T02:04:24;4.45;;;1.70;;
65651;SDS011;52350;51.546;7.002;2022-09-09T02:13:11;4.70;;;1.85;;
65651;SDS011;52350;51.546;7.002;2022-09-09T02:18:36;5.70;;;1.93;;
65651;SDS011;52350;51.546;7.002;2022-09-09T02:21:07;3.55;;;1.90;;
65651;SDS011;52350;51.546;7.002;2022-09-09T02:23:36;5.35;;;1.90;;
65651;SDS011;52350;51.546;7.002;2022-09-09T02:26:06;4.00;;;1.60;;
65651;SDS011;52350;51.546;7.002;2022-09-09T02:28:38;3.22;;;1.58;;
65651;SDS011;52350;51.546;7.002;2022-09-09T02:31:05;5.88;;;1.90;;
65651;SDS011;52350;51.546;7.002;2022-09-09T02:33:33;5.15;;;2.00;;
65651;SDS011;52350;51.546;7.002;2022-09-09T02:36:07;6.03;;;1.90;;
65651;SDS011;52350;51.546;7.002;2022-09-09T02:38:38;5.32;;;1.67;;
65651;SDS011;52350;51.546;7.002;2022-09-09T02:41:11;2.60;;;1.48;;
65651;SDS011;52350;51.546;7.002;2022-09-09T02:43:36;6.00;;;1.52;;
65651;SDS011;52350;51.546;7.002;2022-09-09T02:49:03;5.13;;;1.50;;
65651;SDS011;52350;51.546;7.002;2022-09-09T02:54:30;7.93;;;1.73;;
65651;SDS011;52350;51.546;7.002;2022-09-09T02:57:14;5.18;;;1.77;;
65651;SDS011;52350;51.546;7.002;2022-09-09T02:59:47;4.90;;;1.55;;
65651;SDS011;52350;51.546;7.002;2022-09-09T03:02:15;3.33;;;1.70;;
65651;SDS011;52350;51.546;7.002;2022-09-09T03:04:41;6.13;;;1.95;;
65651;SDS011;52350;51.546;7.002;2022-09-09T03:07:09;5.72;;;1.60;;
65651;SDS011;52350;51.546;7.002;2022-09-09T03:09:37;5.90;;;1.80;;
65651;SDS011;52350;51.546;7.002;2022-09-09T03:12:02;6.55;;;1.73;;
65651;SDS011;52350;51.546;7.002;2022-09-09T03:14:29;6.75;;;1.75;;
65651;SDS011;52350;51.546;7.002;2022-09-09T03:16:55;6.68;;;1.70;;
65651;SDS011;52350;51.546;7.002;2022-09-09T03:19:23;8.77;;;2.10;;
65651;SDS011;52350;51.546;7.002;2022-09-09T03:21:49;9.48;;;2.10;;
65651;SDS011;52350;51.546;7.002;2022-09-09T03:24:15;7.22;;;2.20;;
65651;SDS011;52350;51.546;7.002;2022-09-09T03:26:41;5.70;;;1.80;;
65651;SDS011;52350;51.546;7.002;2022-09-09T03:29:11;4.32;;;1.75;;
65651;SDS011;52350;51.546;7.002;2022-09-09T03:31:37;3.55;;;1.67;;
65651;SDS011;52350;51.546;7.002;2022-09-09T03:34:04;9.45;;;2.20;;
65651;SDS011;52350;51.546;7.002;2022-09-09T03:36:30;5.22;;;1.88;;
65651;SDS011;52350;51.546;7.002;2022-09-09T03:38:56;5.70;;;1.90;;
65651;SDS011;52350;51.546;7.002;2022-09-09T03:41:22;4.20;;;1.80;;
65651;SDS011;52350;51.546;7.002;2022-09-09T03:43:51;6.97;;;1.95;;
65651;SDS011;52350;51.546;7.002;2022-09-09T03:46:17;7.30;;;2.10;;
65651;SDS011;52350;51.546;7.002;2022-09-09T03:48:44;7.60;;;2.05;;
65651;SDS011;52350;51.546;7.002;2022-09-09T03:51:09;8.02;;;2.47;;
65651;SDS011;52350;51.546;7.002;2022-09-09T03:53:35;6.70;;;2.05;;
65651;SDS011;52350;51.546;7.002;2022-09-09T03:56:02;8.38;;;2.15;;
65651;SDS011;52350;51.546;7.002;2022-09-09T03:58:31;7.50;;;2.30;;
65651;SDS011;52350;51.546;7.002;2022-09-09T04:01:00;8.95;;;1.98;;
65651;SDS011;52350;51.546;7.002;2022-09-09T04:03:33;6.45;;;1.80;;
65651;SDS011;52350;51.546;7.002;2022-09-09T04:06:00;7.28;;;2.17;;
65651;SDS011;52350;51.546;7.002;2022-09-09T04:08:33;10.45;;;2.72;;
65651;SDS011;52350;51.546;7.002;2022-09-09T04:11:00;8.15;;;2.00;;
65651;SDS011;52350;51.546;7.002;2022-09-09T04:13:29;7.28;;;1.90;;
65651;SDS011;52350;51.546;7.002;2022-09-09T04:15:56;7.03;;;1.98;;
65651;SDS011;52350;51.546;7.002;2022-09-09T04:18:25;8.07;;;2.20;;
65651;SDS011;52350;51.546;7.002;2022-09-09T04:20:51;7.18;;;2.30;;
65651;SDS011;52350;51.546;7.002;2022-09-09T04:23:18;6.90;;;2.03;;
65651;SDS011;52350;51.546;7.002;2022-09-09T04:25:49;5.95;;;2.25;;
65651;SDS011;52350;51.546;7.002;2022-09-09T04:28:18;7.40;;;2.22;;
65651;SDS011;52350;51.546;7.002;2022-09-09T04:30:47;11.48;;;2.30;;
65651;SDS011;52350;51.546;7.002;2022-09-09T04:33:13;7.13;;;2.20;;
65651;SDS011;52350;51.546;7.002;2022-09-09T04:35:47;5.65;;;2.03;;
65651;SDS011;52350;51.546;7.002;2022-09-09T04:38:15;8.77;;;2.75;;
65651;SDS011;52350;51.546;7.002;2022-09-09T04:40:49;15.95;;;7.10;;
65651;SDS011;52350;51.546;7.002;2022-09-09T04:43:17;15.60;;;6.10;;
65651;SDS011;52350;51.546;7.002;2022-09-09T04:45:43;16.08;;;6.82;;
65651;SDS011;52350;51.546;7.002;2022-09-09T04:48:13;12.05;;;5.53;;
65651;SDS011;52350;51.546;7.002;2022-09-09T04:50:39;12.15;;;5.70;;
65651;SDS011;52350;51.546;7.002;2022-09-09T04:53:05;17.98;;;5.35;;
65651;SDS011;52350;51.546;7.002;2022-09-09T04:55:31;13.05;;;5.07;;
65651;SDS011;52350;51.546;7.002;2022-09-09T04:58:03;18.27;;;6.72;;
65651;SDS011;52350;51.546;7.002;2022-09-09T05:00:30;17.40;;;8.00;;
65651;SDS011;52350;51.546;7.002;2022-09-09T05:02:57;18.92;;;7.53;;
65651;SDS011;52350;51.546;7.002;2022-09-09T05:05:23;15.13;;;6.53;;
65651;SDS011;52350;51.546;7.002;2022-09-09T05:07:48;12.45;;;6.45;;
65651;SDS011;52350;51.546;7.002;2022-09-09T05:10:14;14.43;;;5.82;;
65651;SDS011;52350;51.546;7.002;2022-09-09T05:12:41;14.88;;;6.40;;
65651;SDS011;52350;51.546;7.002;2022-09-09T05:15:07;15.15;;;4.38;;
65651;SDS011;52350;51.546;7.002;2022-09-09T05:17:34;12.45;;;3.67;;
65651;SDS011;52350;51.546;7.002;2022-09-09T05:20:00;12.93;;;3.85;;
65651;SDS011;52350;51.546;7.002;2022-09-09T05:22:28;16.75;;;3.60;;
65651;SDS011;52350;51.546;7.002;2022-09-09T05:24:54;7.80;;;3.03;;
65651;SDS011;52350;51.546;7.002;2022-09-09T05:27:20;9.48;;;2.60;;
65651;SDS011;52350;51.546;7.002;2022-09-09T05:29:46;10.85;;;2.38;;
65651;SDS011;52350;51.546;7.002;2022-09-09T05:32:11;9.30;;;3.03;;
65651;SDS011;52350;51.546;7.002;2022-09-09T05:34:38;8.02;;;2.88;;
65651;SDS011;52350;51.546;7.002;2022-09-09T05:37:04;10.90;;;3.08;;
65651;SDS011;52350;51.546;7.002;2022-09-09T05:39:30;13.23;;;2.70;;
65651;SDS011;52350;51.546;7.002;2022-09-09T05:41:55;9.95;;;3.22;;
65651;SDS011;52350;51.546;7.002;2022-09-09T05:44:21;11.50;;;2.80;;
65651;SDS011;52350;51.546;7.002;2022-09-09T05:46:48;14.13;;;3.03;;
65651;SDS011;52350;51.546;7.002;2022-09-09T05:49:14;11.32;;;3.65;;
65651;SDS011;52350;51.546;7.002;2022-09-09T05:51:40;10.75;;;2.88;;
65651;SDS011;52350;51.546;7.002;2022-09-09T05:54:07;9.15;;;2.58;;
65651;SDS011;52350;51.546;7.002;2022-09-09T05:56:34;10.75;;;2.42;;
65651;SDS011;52350;51.546;7.002;2022-09-09T05:58:59;6.88;;;1.95;;
65651;SDS011;52350;51.546;7.002;2022-09-09T06:01:26;14.00;;;2.30;;
65651;SDS011;52350;51.546;7.002;2022-09-09T06:03:57;6.20;;;2.42;;
65651;SDS011;52350;51.546;7.002;2022-09-09T06:06:24;8.05;;;2.50;;
65651;SDS011;52350;51.546;7.002;2022-09-09T06:08:55;6.88;;;2.22;;
65651;SDS011;52350;51.546;7.002;2022-09-09T06:11:30;6.28;;;2.10;;
65651;SDS011;52350;51.546;7.002;2022-09-09T06:13:56;12.32;;;2.40;;
65651;SDS011;52350;51.546;7.002;2022-09-09T06:16:24;9.23;;;2.38;;
65651;SDS011;52350;51.546;7.002;2022-09-09T06:18:55;8.70;;;2.20;;
65651;SDS011;52350;51.546;7.002;2022-09-09T06:23:54;8.02;;;2.33;;
65651;SDS011;52350;51.546;7.002;2022-09-09T06:26:23;7.97;;;2.38;;
65651;SDS011;52350;51.546;7.002;2022-09-09T06:28:52;10.68;;;2.30;;
65651;SDS011;52350;51.546;7.002;2022-09-09T06:31:20;7.25;;;2.40;;
65651;SDS011;52350;51.546;7.002;2022-09-09T06:33:49;7.20;;;2.13;;
65651;SDS011;52350;51.546;7.002;2022-09-09T06:36:19;8.52;;;2.50;;
65651;SDS011;52350;51.546;7.002;2022-09-09T06:38:47;8.23;;;2.95;;
65651;SDS011;52350;51.546;7.002;2022-09-09T06:41:14;8.73;;;2.20;;
65651;SDS011;52350;51.546;7.002;2022-09-09T06:43:43;9.47;;;2.13;;
65651;SDS011;52350;51.546;7.002;2022-09-09T06:48:40;5.10;;;1.73;;
65651;SDS011;52350;51.546;7.002;2022-09-09T06:53:34;9.75;;;2.30;;
65651;SDS011;52350;51.546;7.002;2022-09-09T06:56:02;11.10;;;2.67;;
65651;SDS011;52350;51.546;7.002;2022-09-09T06:58:44;7.93;;;2.03;;
65651;SDS011;52350;51.546;7.002;2022-09-09T07:01:14;9.88;;;2.22;;
65651;SDS011;52350;51.546;7.002;2022-09-09T07:03:47;6.65;;;1.98;;
65651;SDS011;52350;51.546;7.002;2022-09-09T07:06:16;9.07;;;2.35;;
65651;SDS011;52350;51.546;7.002;2022-09-09T07:08:52;9.20;;;2.20;;
65651;SDS011;52350;51.546;7.002;2022-09-09T07:11:20;5.45;;;2.03;;
65651;SDS011;52350;51.546;7.002;2022-09-09T07:13:48;9.43;;;2.20;;
65651;SDS011;52350;51.546;7.002;2022-09-09T07:16:17;6.82;;;2.22;;
65651;SDS011;52350;51.546;7.002;2022-09-09T07:18:45;6.70;;;2.20;;
65651;SDS011;52350;51.546;7.002;2022-09-09T07:21:12;10.60;;;2.25;;
65651;SDS011;52350;51.546;7.002;2022-09-09T07:23:40;8.55;;;2.38;;
65651;SDS011;52350;51.546;7.002;2022-09-09T07:26:13;5.85;;;2.10;;
65651;SDS011;52350;51.546;7.002;2022-09-09T07:28:44;8.13;;;2.25;;
65651;SDS011;52350;51.546;7.002;2022-09-09T07:31:15;6.63;;;1.95;;
65651;SDS011;52350;51.546;7.002;2022-09-09T07:33:44;9.60;;;2.65;;
65651;SDS011;52350;51.546;7.002;2022-09-09T07:36:18;9.23;;;2.20;;
65651;SDS011;52350;51.546;7.002;2022-09-09T07:39:00;11.50;;;4.45;;
65651;SDS011;52350;51.546;7.002;2022-09-09T07:41:36;9.52;;;2.20;;
65651;SDS011;52350;51.546;7.002;2022-09-09T07:44:26;8.05;;;2.10;;
65651;SDS011;52350;51.546;7.002;2022-09-09T07:46:51;12.65;;;2.88;;
65651;SDS011;52350;51.546;7.002;2022-09-09T07:49:17;11.90;;;2.72;;
65651;SDS011;52350;51.546;7.002;2022-09-09T07:51:44;8.40;;;2.35;;
65651;SDS011;52350;51.546;7.002;2022-09-09T07:54:13;9.38;;;2.10;;
65651;SDS011;52350;51.546;7.002;2022-09-09T07:56:44;10.77;;;2.50;;
65651;SDS011;52350;51.546;7.002;2022-09-09T07:59:12;11.35;;;3.00;;
65651;SDS011;52350;51.546;7.002;2022-09-09T08:01:42;4.43;;;1.42;;
65651;SDS011;52350;51.546;7.002;2022-09-09T08:06:47;11.50;;;1.70;;
65651;SDS011;52350;51.546;7.002;2022-09-09T08:09:19;6.30;;;1.77;;
65651;SDS011;52350;51.546;7.002;2022-09-09T08:11:45;5.47;;;1.65;;
65651;SDS011;52350;51.546;7.002;2022-09-09T08:14:12;11.32;;;2.30;;
65651;SDS011;52350;51.546;7.002;2022-09-09T08:16:43;8.73;;;2.33;;
65651;SDS011;52350;51.546;7.002;2022-09-09T08:19:11;13.77;;;2.47;;
65651;SDS011;52350;51.546;7.002;2022-09-09T08:21:39;7.30;;;1.88;;
65651;SDS011;52350;51.546;7.002;2022-09-09T08:24:07;9.50;;;2.00;;
65651;SDS011;52350;51.546;7.002;2022-09-09T08:26:40;8.18;;;2.30;;
65651;SDS011;52350;51.546;7.002;2022-09-09T08:29:13;6.60;;;2.17;;
65651;SDS011;52350;51.546;7.002;2022-09-09T08:31:41;11.85;;;2.88;;
65651;SDS011;52350;51.546;7.002;2022-09-09T08:34:11;10.30;;;2.20;;
65651;SDS011;52350;51.546;7.002;2022-09-09T08:36:38;6.93;;;2.33;;
65651;SDS011;52350;51.546;7.002;2022-09-09T08:39:10;8.60;;;1.90;;
65651;SDS011;52350;51.546;7.002;2022-09-09T08:48:03;4.18;;;1.33;;
65651;SDS011;52350;51.546;7.002;2022-09-09T08:50:48;7.68;;;1.80;;
65651;SDS011;52350;51.546;7.002;2022-09-09T08:55:58;25.02;;;2.50;;
65651;SDS011;52350;51.546;7.002;2022-09-09T08:58:32;13.05;;;2.05;;
65651;SDS011;52350;51.546;7.002;2022-09-09T09:06:55;11.85;;;1.45;;
65651;SDS011;52350;51.546;7.002;2022-09-09T09:12:58;11.80;;;2.20;;
65651;SDS011;52350;51.546;7.002;2022-09-09T09:15:28;12.30;;;2.50;;
65651;SDS011;52350;51.546;7.002;2022-09-09T09:18:02;13.80;;;1.83;;
65651;SDS011;52350;51.546;7.002;2022-09-09T09:20:41;4.68;;;1.55;;
65651;SDS011;52350;51.546;7.002;2022-09-09T09:23:29;4.47;;;1.05;;
65651;SDS011;52350;51.546;7.002;2022-09-09T09:26:09;7.95;;;1.73;;
65651;SDS011;52350;51.546;7.002;2022-09-09T09:28:36;5.97;;;1.60;;
65651;SDS011;52350;51.546;7.002;2022-09-09T09:31:06;8.45;;;1.40;;
65651;SDS011;52350;51.546;7.002;2022-09-09T09:36:19;9.50;;;1.48;;
65651;SDS011;52350;51.546;7.002;2022-09-09T09:38:51;7.22;;;1.63;;
65651;SDS011;52350;51.546;7.002;2022-09-09T09:44:05;12.70;;;2.00;;
65651;SDS011;52350;51.546;7.002;2022-09-09T09:46:46;24.13;;;2.35;;
65651;SDS011;52350;51.546;7.002;2022-09-09T09:49:12;9.85;;;2.60;;
65651;SDS011;52350;51.546;7.002;2022-09-09T09:51:38;4.35;;;1.65;;
65651;SDS011;52350;51.546;7.002;2022-09-09T09:54:09;7.72;;;1.90;;
65651;SDS011;52350;51.546;7.002;2022-09-09T09:56:39;6.03;;;1.65;;
65651;SDS011;52350;51.546;7.002;2022-09-09T09:59:18;5.75;;;1.30;;
65651;SDS011;52350;51.546;7.002;2022-09-09T10:05:00;6.40;;;1.88;;
65651;SDS011;52350;51.546;7.002;2022-09-09T10:07:27;12.75;;;2.20;;
65651;SDS011;52350;51.546;7.002;2022-09-09T10:09:55;9.35;;;1.92;;
65651;SDS011;52350;51.546;7.002;2022-09-09T10:15:32;5.93;;;1.98;;
65651;SDS011;52350;51.546;7.002;2022-09-09T10:21:20;5.18;;;1.83;;
65651;SDS011;52350;51.546;7.002;2022-09-09T10:24:39;7.55;;;1.50;;
65651;SDS011;52350;51.546;7.002;2022-09-09T10:30:18;15.75;;;2.17;;
65651;SDS011;52350;51.546;7.002;2022-09-09T10:32:49;6.47;;;2.00;;
65651;SDS011;52350;51.546;7.002;2022-09-09T10:35:59;8.18;;;2.05;;
65651;SDS011;52350;51.546;7.002;2022-09-09T10:47:18;12.73;;;1.90;;
65651;SDS011;52350;51.546;7.002;2022-09-09T10:55:50;2.15;;;1.17;;
65651;SDS011;52350;51.546;7.002;2022-09-09T10:58:28;6.55;;;1.50;;
65651;SDS011;52350;51.546;7.002;2022-09-09T11:01:41;9.15;;;1.67;;
65651;SDS011;52350;51.546;7.002;2022-09-09T11:04:20;8.77;;;1.77;;
65651;SDS011;52350;51.546;7.002;2022-09-09T11:06:52;7.15;;;1.80;;
65651;SDS011;52350;51.546;7.002;2022-09-09T11:09:27;18.25;;;2.22;;
65651;SDS011;52350;51.546;7.002;2022-09-09T11:12:01;6.78;;;1.67;;
65651;SDS011;52350;51.546;7.002;2022-09-09T11:17:11;13.27;;;1.90;;
65651;SDS011;52350;51.546;7.002;2022-09-09T11:19:43;8.82;;;1.80;;
65651;SDS011;52350;51.546;7.002;2022-09-09T11:22:27;6.18;;;1.90;;
65651;SDS011;52350;51.546;7.002;2022-09-09T11:39:12;3.70;;;1.58;;
65651;SDS011;52350;51.546;7.002;2022-09-09T11:44:44;9.32;;;1.85;;
65651;SDS011;52350;51.546;7.002;2022-09-09T11:47:29;10.90;;;1.85;;
65651;SDS011;52350;51.546;7.002;2022-09-09T11:52:41;4.22;;;1.23;;
65651;SDS011;52350;51.546;7.002;2022-09-09T11:58:19;10.00;;;2.03;;
65651;SDS011;52350;51.546;7.002;2022-09-09T12:00:45;9.60;;;1.75;;
65651;SDS011;52350;51.546;7.002;2022-09-09T12:06:11;2.88;;;1.20;;
65651;SDS011;52350;51.546;7.002;2022-09-09T12:08:49;8.90;;;1.90;;
65651;SDS011;52350;51.546;7.002;2022-09-09T12:11:26;7.93;;;1.77;;
65651;SDS011;52350;51.546;7.002;2022-09-09T12:13:56;5.72;;;1.40;;
65651;SDS011;52350;51.546;7.002;2022-09-09T12:16:36;5.68;;;2.00;;
65651;SDS011;52350;51.546;7.002;2022-09-09T12:19:24;8.98;;;1.65;;
65651;SDS011;52350;51.546;7.002;2022-09-09T12:24:51;7.85;;;2.05;;
65651;SDS011;52350;51.546;7.002;2022-09-09T12:27:35;7.57;;;1.85;;
65651;SDS011;52350;51.546;7.002;2022-09-09T12:30:12;4.47;;;1.60;;
65651;SDS011;52350;51.546;7.002;2022-09-09T12:32:42;6.78;;;1.65;;
65651;SDS011;52350;51.546;7.002;2022-09-09T12:40:29;2.70;;;1.45;;
65651;SDS011;52350;51.546;7.002;2022-09-09T12:43:00;8.63;;;1.65;;
65651;SDS011;52350;51.546;7.002;2022-09-09T12:45:31;10.18;;;2.35;;
65651;SDS011;52350;51.546;7.002;2022-09-09T12:47:59;11.95;;;2.22;;
65651;SDS011;52350;51.546;7.002;2022-09-09T12:50:31;8.35;;;1.95;;
65651;SDS011;52350;51.546;7.002;2022-09-09T12:53:08;8.35;;;2.03;;
65651;SDS011;52350;51.546;7.002;2022-09-09T12:55:49;5.35;;;1.60;;
65651;SDS011;52350;51.546;7.002;2022-09-09T12:58:28;4.78;;;1.48;;
65651;SDS011;52350;51.546;7.002;2022-09-09T13:01:00;8.48;;;1.60;;
65651;SDS011;52350;51.546;7.002;2022-09-09T13:03:30;14.18;;;2.20;;
65651;SDS011;52350;51.546;7.002;2022-09-09T13:06:12;7.63;;;1.90;;
65651;SDS011;52350;51.546;7.002;2022-09-09T13:08:47;7.40;;;1.83;;
65651;SDS011;52350;51.546;7.002;2022-09-09T13:11:16;6.68;;;1.38;;
65651;SDS011;52350;51.546;7.002;2022-09-09T13:13:50;5.93;;;1.27;;
65651;SDS011;52350;51.546;7.002;2022-09-09T13:18:58;6.05;;;1.70;;
65651;SDS011;52350;51.546;7.002;2022-09-09T13:21:34;5.32;;;1.50;;
65651;SDS011;52350;51.546;7.002;2022-09-09T13:24:05;5.80;;;1.67;;
65651;SDS011;52350;51.546;7.002;2022-09-09T13:27:02;7.35;;;1.40;;
65651;SDS011;52350;51.546;7.002;2022-09-09T13:29:52;3.00;;;1.30;;
65651;SDS011;52350;51.546;7.002;2022-09-09T13:34:50;4.35;;;1.27;;
65651;SDS011;52350;51.546;7.002;2022-09-09T13:40:01;4.53;;;1.23;;
65651;SDS011;52350;51.546;7.002;2022-09-09T13:42:31;6.47;;;1.88;;
65651;SDS011;52350;51.546;7.002;2022-09-09T13:45:04;5.13;;;1.30;;
65651;SDS011;52350;51.546;7.002;2022-09-09T13:47:31;6.05;;;1.40;;
65651;SDS011;52350;51.546;7.002;2022-09-09T13:50:15;4.03;;;1.50;;
65651;SDS011;52350;51.546;7.002;2022-09-09T13:52:48;3.75;;;1.30;;
65651;SDS011;52350;51.546;7.002;2022-09-09T13:55:27;4.97;;;1.48;;
65651;SDS011;52350;51.546;7.002;2022-09-09T14:00:23;7.03;;;1.75;;
65651;SDS011;52350;51.546;7.002;2022-09-09T14:02:50;8.00;;;1.85;;
65651;SDS011;52350;51.546;7.002;2022-09-09T14:05:20;4.32;;;1.60;;
65651;SDS011;52350;51.546;7.002;2022-09-09T14:07:47;6.20;;;1.65;;
65651;SDS011;52350;51.546;7.002;2022-09-09T14:10:15;7.38;;;1.98;;
65651;SDS011;52350;51.546;7.002;2022-09-09T14:12:40;5.53;;;2.00;;
65651;SDS011;52350;51.546;7.002;2022-09-09T14:15:06;9.35;;;2.53;;
65651;SDS011;52350;51.546;7.002;2022-09-09T14:17:36;6.85;;;2.08;;
65651;SDS011;52350;51.546;7.002;2022-09-09T14:20:06;9.23;;;2.30;;
65651;SDS011;52350;51.546;7.002;2022-09-09T14:22:33;7.07;;;2.20;;
65651;SDS011;52350;51.546;7.002;2022-09-09T14:24:59;11.77;;;2.17;;
65651;SDS011;52350;51.546;7.002;2022-09-09T14:27:25;9.25;;;2.00;;
65651;SDS011;52350;51.546;7.002;2022-09-09T14:29:51;3.47;;;1.42;;
65651;SDS011;52350;51.546;7.002;2022-09-09T14:32:17;5.22;;;1.65;;
65651;SDS011;52350;51.546;7.002;2022-09-09T14:34:43;7.32;;;1.92;;
65651;SDS011;52350;51.546;7.002;2022-09-09T14:37:09;6.32;;;1.80;;
65651;SDS011;52350;51.546;7.002;2022-09-09T14:39:43;7.45;;;1.90;;
65651;SDS011;52350;51.546;7.002;2022-09-09T14:48:43;5.47;;;1.70;;
65651;SDS011;52350;51.546;7.002;2022-09-09T14:51:14;5.40;;;1.58;;
65651;SDS011;52350;51.546;7.002;2022-09-09T14:53:44;3.88;;;1.70;;
65651;SDS011;52350;51.546;7.002;2022-09-09T14:56:15;4.80;;;1.50;;
65651;SDS011;52350;51.546;7.002;2022-09-09T14:58:43;4.20;;;1.77;;
65651;SDS011;52350;51.546;7.002;2022-09-09T15:01:10;7.60;;;1.88;;
65651;SDS011;52350;51.546;7.002;2022-09-09T15:03:42;3.97;;;1.70;;
65651;SDS011;52350;51.546;7.002;2022-09-09T15:06:16;7.32;;;1.70;;
65651;SDS011;52350;51.546;7.002;2022-09-09T15:08:42;5.43;;;1.20;;
65651;SDS011;52350;51.546;7.002;2022-09-09T15:11:11;2.17;;;1.00;;
65651;SDS011;52350;51.546;7.002;2022-09-09T15:13:40;5.25;;;1.15;;
65651;SDS011;52350;51.546;7.002;2022-09-09T15:16:08;3.60;;;0.88;;
65651;SDS011;52350;51.546;7.002;2022-09-09T15:18:43;1.95;;;1.00;;
65651;SDS011;52350;51.546;7.002;2022-09-09T15:21:11;2.83;;;0.88;;
65651;SDS011;52350;51.546;7.002;2022-09-09T15:23:47;1.83;;;0.73;;
65651;SDS011;52350;51.546;7.002;2022-09-09T15:26:13;0.90;;;0.68;;
65651;SDS011;52350;51.546;7.002;2022-09-09T15:28:39;3.25;;;0.90;;
65651;SDS011;52350;51.546;7.002;2022-09-09T15:31:27;2.05;;;1.00;;
65651;SDS011;52350;51.546;7.002;2022-09-09T15:33:58;1.98;;;1.00;;
65651;SDS011;52350;51.546;7.002;2022-09-09T15:36:35;3.97;;;0.90;;
65651;SDS011;52350;51.546;7.002;2022-09-09T15:39:06;2.53;;;1.05;;
65651;SDS011;52350;51.546;7.002;2022-09-09T15:41:37;3.70;;;1.02;;
65651;SDS011;52350;51.546;7.002;2022-09-09T15:44:04;4.95;;;1.30;;
65651;SDS011;52350;51.546;7.002;2022-09-09T15:46:34;3.80;;;1.33;;
65651;SDS011;52350;51.546;7.002;2022-09-09T15:49:04;4.80;;;1.02;;
65651;SDS011;52350;51.546;7.002;2022-09-09T15:51:37;4.60;;;1.48;;
65651;SDS011;52350;51.546;7.002;2022-09-09T15:54:06;5.07;;;1.50;;
65651;SDS011;52350;51.546;7.002;2022-09-09T15:56:32;4.07;;;1.50;;
65651;SDS011;52350;51.546;7.002;2022-09-09T15:59:00;7.63;;;1.92;;
65651;SDS011;52350;51.546;7.002;2022-09-09T16:01:30;5.03;;;1.80;;
65651;SDS011;52350;51.546;7.002;2022-09-09T16:03:57;4.70;;;1.40;;
65651;SDS011;52350;51.546;7.002;2022-09-09T16:06:25;4.22;;;1.42;;
65651;SDS011;52350;51.546;7.002;2022-09-09T16:08:53;3.83;;;1.60;;
65651;SDS011;52350;51.546;7.002;2022-09-09T16:11:29;3.80;;;1.67;;
65651;SDS011;52350;51.546;7.002;2022-09-09T16:13:58;5.78;;;2.00;;
65651;SDS011;52350;51.546;7.002;2022-09-09T16:16:25;7.40;;;2.00;;
65651;SDS011;52350;51.546;7.002;2022-09-09T16:18:54;5.25;;;1.98;;
65651;SDS011;52350;51.546;7.002;2022-09-09T16:21:25;3.57;;;1.60;;
65651;SDS011;52350;51.546;7.002;2022-09-09T16:23:58;4.00;;;1.45;;
65651;SDS011;52350;51.546;7.002;2022-09-09T16:26:28;4.07;;;1.25;;
65651;SDS011;52350;51.546;7.002;2022-09-09T16:28:57;3.33;;;1.25;;
65651;SDS011;52350;51.546;7.002;2022-09-09T16:31:29;3.08;;;1.20;;
65651;SDS011;52350;51.546;7.002;2022-09-09T16:37:43;4.20;;;1.00;;
65651;SDS011;52350;51.546;7.002;2022-09-09T16:40:12;3.30;;;1.00;;
65651;SDS011;52350;51.546;7.002;2022-09-09T16:42:40;3.35;;;1.10;;
65651;SDS011;52350;51.546;7.002;2022-09-09T16:45:07;3.47;;;1.30;;
65651;SDS011;52350;51.546;7.002;2022-09-09T16:47:33;3.75;;;0.95;;
65651;SDS011;52350;51.546;7.002;2022-09-09T16:49:59;3.78;;;1.30;;
65651;SDS011;52350;51.546;7.002;2022-09-09T16:52:24;8.50;;;1.50;;
65651;SDS011;52350;51.546;7.002;2022-09-09T16:54:50;3.40;;;1.10;;
65651;SDS011;52350;51.546;7.002;2022-09-09T16:57:15;3.08;;;1.17;;
65651;SDS011;52350;51.546;7.002;2022-09-09T16:59:41;6.03;;;1.83;;
65651;SDS011;52350;51.546;7.002;2022-09-09T17:02:07;6.05;;;1.90;;
65651;SDS011;52350;51.546;7.002;2022-09-09T17:04:33;8.02;;;2.40;;
65651;SDS011;52350;51.546;7.002;2022-09-09T17:06:58;8.40;;;2.58;;
65651;SDS011;52350;51.546;7.002;2022-09-09T17:09:25;8.65;;;2.80;;
65651;SDS011;52350;51.546;7.002;2022-09-09T17:11:54;7.93;;;2.63;;
65651;SDS011;52350;51.546;7.002;2022-09-09T17:14:20;6.78;;;2.28;;
65651;SDS011;52350;51.546;7.002;2022-09-09T17:16:47;4.47;;;1.90;;
65651;SDS011;52350;51.546;7.002;2022-09-09T17:19:13;3.50;;;1.50;;
65651;SDS011;52350;51.546;7.002;2022-09-09T17:21:40;7.07;;;1.73;;
65651;SDS011;52350;51.546;7.002;2022-09-09T17:24:05;5.47;;;1.48;;
65651;SDS011;52350;51.546;7.002;2022-09-09T17:26:32;4.97;;;1.85;;
65651;SDS011;52350;51.546;7.002;2022-09-09T17:28:59;4.68;;;1.67;;
65651;SDS011;52350;51.546;7.002;2022-09-09T17:31:26;4.00;;;1.58;;
65651;SDS011;52350;51.546;7.002;2022-09-09T17:33:54;3.85;;;1.55;;
65651;SDS011;52350;51.546;7.002;2022-09-09T17:38:50;5.88;;;1.63;;
65651;SDS011;52350;51.546;7.002;2022-09-09T17:41:21;7.00;;;1.73;;
65651;SDS011;52350;51.546;7.002;2022-09-09T17:43:50;3.60;;;1.60;;
65651;SDS011;52350;51.546;7.002;2022-09-09T17:46:21;4.95;;;1.80;;
65651;SDS011;52350;51.546;7.002;2022-09-09T17:48:57;6.88;;;1.90;;
65651;SDS011;52350;51.546;7.002;2022-09-09T17:51:30;5.43;;;1.80;;
65651;SDS011;52350;51.546;7.002;2022-09-09T17:54:00;4.60;;;1.83;;
65651;SDS011;52350;51.546;7.002;2022-09-09T17:56:35;4.47;;;1.70;;
65651;SDS011;52350;51.546;7.002;2022-09-09T17:59:06;4.70;;;1.80;;